Terminal Aerodrome Forecast
Issued by NWS Tampa Bay Area, FL

Home | Current Version | Previous Version | Text Only | Print | Product List | Glossary On
Versions: 1 2 3 4 5 6 7 8 9 10 11 12 13 14
957
FTUS42 KTBW 180520
TAFFMY
TAF
KFMY 180520Z 1806/1906 04008KT P6SM FEW025 SCT040 OVC100
     FM181400 06010G15KT P6SM SCT025 BKN100=

USA.gov is the U.S. government's official web portal to all federal, state and local government web resources and services.